首页
METAR-TAF:

METAR-TAF

机场 :

魁北克让·勒萨热国际机场

魁北克, 魁北克, 加拿大

纬度: 46-48N, 经度: 071-23W, 海拔: 70米

当前天气观测

该预报发布于10分钟前的14:00 UTC
风速14节,风向东转东北,有时为20节阵风
温度 -7°C
湿度 86%
气压 1017 hPa
能見度: 9.7公里
多云层高于1400英尺
阴天层高于2800英尺
小雪, 轻雾, 低吹雪

METAR: CYQB 201400Z 06014G20KT 6SM -SN BR DRSN BKN014 OVC028 M07/M09 A3003 RMK SC5SC3 VIS N 4 VIS E 10 SLP175

时间: 09:10 (14:10 UTC)

预报

该预报发布于2小时和5分钟前的12:05 UTC
预报有效从20日的 12点(UTC)到 21日的 12点(UTC)
风速15节,风向东转东北
能見度: 10公里
散云层高于1500英尺
阴天层高于13000英尺
短暂存在
从 20日的 12点(UTC)到 20日的 18点(UTC)
能見度: 8.0公里
散云层高于700英尺
阴天层高于1500英尺
小阵雪
从 20日的 1800点(UTC)
风速12节,风向东转东北,有时为22节阵风
能見度: 3.2公里
阴天层高于1000英尺
小雪
几率 40%
从 20日的 18点(UTC)到 20日的 22点(UTC)
能見度: 1.6公里
阴天层高于800英尺
小雪
从 20日的 2200点(UTC)
风速10节,风向东转东北,有时为20节阵风
能見度: 1.6公里
阴天层高于800英尺
小雪
从 21日的 0300点(UTC)
风速10节,风向东转东北
能見度: 3.2公里
阴天层高于1000英尺
小雪
从 21日的 0700点(UTC)
风速7节,风向东转东南
能見度: 8.0公里
散云层高于700英尺
阴天层高于1500英尺
小雪
从 21日的 0900点(UTC)
风速12节,风向西转西南
能見度: 10公里
阴天层高于1500英尺
小雪

TAF: CYQB 201205Z 2012/2112 07015KT P6SM SCT015 OVC130 TEMPO 2012/2018 5SM -SHSN SCT007 OVC015 FM201800 07012G22KT 2SM -SN OVC010 PROB40 2018/2022 1SM -SN OVC008 FM202200 07010G20KT 1SM -SN OVC008 FM210300 07010KT 2SM -SN OVC010 FM210700 11007KT 5SM -SN SCT007 OVC015 FM210900 25012KT P6SM -SN OVC015 RMK NXT FCST BY 201800Z

超过4000个机场的气象观测和天气预报(METAR&TAF报告)。

可查询的气象台以黄色和红色小点在地图上表示。

将鼠标移到小点上方,可查看气象台名称。

然后点击查看天气观测和预报。

如需切换地图:点击带黑十字的绿色按钮放大地图;点击带横线的绿色按钮缩小地图;或者点击绿色箭头查看邻近地区的地图。


METAR-TAF: